Time;durP1;ratioP1;P1;durP2;ratioP2;P2;SDS_P1;SDS_P2;PMS_P1;PMS_P2;Temp;Humidity;BMP_temperature;BMP_pressure;BME280_temperature;BME280_humidity;BME280_pressure;Samples;Min_cycle;Max_cycle;Signal;HPM_P1;HPM_P2
2021/05/17 00:02:27;;;;;;;1.33;0.80;;;12.70;99.90;;;;;;6209424;22;20474;-88
2021/05/17 00:04:54;;;;;;;2.43;0.90;;;12.70;99.90;;;;;;6203035;23;20447;-88
2021/05/17 00:07:21;;;;;;;1.27;0.90;;;12.60;99.90;;;;;;6194067;23;20403;-88
2021/05/17 00:09:48;;;;;;;2.50;1.03;;;12.60;99.90;;;;;;6203171;23;20436;-88
2021/05/17 00:12:15;;;;;;;1.97;0.80;;;12.60;99.90;;;;;;6214185;22;20455;-87
2021/05/17 00:14:42;;;;;;;1.57;0.73;;;12.60;99.90;;;;;;6214929;22;20417;-88
2021/05/17 00:17:09;;;;;;;2.23;0.90;;;12.50;99.90;;;;;;6214317;22;20459;-88
2021/05/17 00:19:37;;;;;;;1.40;1.00;;;12.50;99.90;;;;;;6214095;22;20445;-87
2021/05/17 00:22:04;;;;;;;2.30;1.00;;;12.40;99.90;;;;;;6211375;22;20411;-88
2021/05/17 00:24:31;;;;;;;1.07;0.80;;;12.40;99.90;;;;;;6199044;22;20434;-88
2021/05/17 00:26:58;;;;;;;3.00;0.70;;;12.40;99.90;;;;;;6198704;23;20420;-88
2021/05/17 00:29:25;;;;;;;0.93;0.77;;;12.40;99.90;;;;;;6208912;23;20497;-87
2021/05/17 00:31:52;;;;;;;1.80;0.93;;;12.40;99.90;;;;;;6213285;22;20403;-88
2021/05/17 00:34:19;;;;;;;2.87;0.77;;;12.40;99.90;;;;;;6198799;23;20490;-87
2021/05/17 00:36:46;;;;;;;1.93;0.90;;;12.30;99.90;;;;;;6198499;23;20410;-88
2021/05/17 00:39:14;;;;;;;0.83;0.80;;;12.30;99.90;;;;;;6191440;23;20443;-88
2021/05/17 00:54:03;;;;;;;2.47;0.80;;;12.30;99.90;;;;;;6068336;23;20930;-87
2021/05/17 00:57:04;;;;;;;5.30;1.60;;;12.30;99.90;;;;;;6197634;23;20425;-87
2021/05/17 01:03:12;;;;;;;;;;;;;;;;;;;;;
2021/05/17 01:05:44;;;;;;;2.70;0.73;;;12.30;99.90;;;;;;6187209;23;20389;-88
2021/05/17 01:08:35;;;;;;;2.67;1.10;;;12.30;99.90;;;;;;6186444;23;20445;-88
2021/05/17 01:11:37;;;;;;;1.23;0.70;;;12.30;99.90;;;;;;6186042;23;20445;-87
2021/05/17 01:14:06;;;;;;;1.80;0.70;;;12.30;99.90;;;;;;6188000;23;20410;-88
2021/05/17 01:16:34;;;;;;;3.60;0.90;;;12.30;99.90;;;;;;6186886;23;20448;-88
2021/05/17 01:19:01;;;;;;;1.23;0.70;;;12.20;99.90;;;;;;6186309;23;20421;-88
2021/05/17 01:21:32;;;;;;;1.03;0.60;;;12.20;99.90;;;;;;6186204;23;20926;-87
2021/05/17 01:23:59;;;;;;;1.50;0.70;;;12.20;99.90;;;;;;6185984;23;20442;-87
2021/05/17 01:26:29;;;;;;;1.53;0.67;;;12.20;99.90;;;;;;6185457;23;20410;-88
2021/05/17 01:28:58;;;;;;;3.70;1.03;;;12.10;99.90;;;;;;6185707;23;20428;-87
2021/05/17 01:31:24;;;;;;;2.93;1.00;;;12.00;99.90;;;;;;6186028;23;20442;-87
2021/05/17 01:33:52;;;;;;;1.57;0.83;;;12.00;99.90;;;;;;6185684;23;20901;-88
2021/05/17 01:36:20;;;;;;;2.20;0.83;;;12.00;99.90;;;;;;6188896;23;20390;-87
2021/05/17 01:38:48;;;;;;;2.10;0.87;;;11.90;99.90;;;;;;6209320;23;20402;-89
2021/05/17 01:41:18;;;;;;;2.83;1.00;;;11.90;99.90;;;;;;6205430;23;20418;-87
2021/05/17 01:43:46;;;;;;;2.90;1.10;;;11.90;99.90;;;;;;6189943;23;20461;-87
2021/05/17 01:46:15;;;;;;;4.70;0.97;;;11.90;99.90;;;;;;6200556;23;20421;-87
2021/05/17 01:48:43;;;;;;;1.23;0.80;;;11.80;99.90;;;;;;6211650;23;20403;-87
2021/05/17 01:51:12;;;;;;;1.07;0.70;;;11.80;99.90;;;;;;6204404;23;20453;-87
2021/05/17 01:53:40;;;;;;;1.27;0.70;;;11.80;99.90;;;;;;6207061;23;20418;-87
2021/05/17 01:56:08;;;;;;;2.80;1.27;;;11.70;99.90;;;;;;6194039;23;20947;-87
2021/05/17 01:58:37;;;;;;;1.50;0.90;;;11.70;99.90;;;;;;6196643;23;20419;-87
2021/05/17 02:01:06;;;;;;;1.77;0.70;;;11.80;99.90;;;;;;6194080;23;20502;-87
2021/05/17 02:03:37;;;;;;;3.20;0.97;;;11.80;99.90;;;;;;6207963;22;20465;-87
2021/05/17 02:06:06;;;;;;;2.10;0.80;;;11.80;99.90;;;;;;6192687;23;20405;-87
2021/05/17 02:08:33;;;;;;;0.80;0.60;;;11.80;99.90;;;;;;6194296;23;20399;-87
2021/05/17 02:11:01;;;;;;;1.47;0.67;;;11.80;99.90;;;;;;6194935;23;20938;-87
2021/05/17 02:13:29;;;;;;;1.87;1.00;;;11.80;99.90;;;;;;6208437;22;20465;-87
2021/05/17 02:15:57;;;;;;;1.47;1.00;;;11.80;99.90;;;;;;6192898;22;20475;-87
2021/05/17 02:18:24;;;;;;;2.63;0.80;;;11.80;99.90;;;;;;6188821;23;20420;-87
2021/05/17 02:20:51;;;;;;;1.10;0.70;;;11.70;99.90;;;;;;6187686;23;20450;-87
2021/05/17 02:23:19;;;;;;;2.10;0.90;;;11.80;99.90;;;;;;6187414;23;20525;-87
2021/05/17 02:25:47;;;;;;;1.23;0.67;;;11.80;99.90;;;;;;6196077;23;20413;-87
2021/05/17 02:28:15;;;;;;;1.40;0.80;;;11.80;99.90;;;;;;6209897;22;20425;-87
2021/05/17 02:30:42;;;;;;;2.00;0.80;;;11.80;99.90;;;;;;6198460;22;20526;-88
2021/05/17 02:33:10;;;;;;;0.80;0.63;;;11.80;99.90;;;;;;6205476;23;20391;-88
2021/05/17 02:35:38;;;;;;;4.43;0.80;;;11.80;99.90;;;;;;6203154;22;20492;-87
2021/05/17 02:38:06;;;;;;;1.00;0.70;;;11.90;99.90;;;;;;6190389;23;20411;-87
2021/05/17 02:40:33;;;;;;;2.30;0.80;;;11.80;99.90;;;;;;6209446;23;20390;-88
2021/05/17 02:43:01;;;;;;;1.23;0.80;;;11.90;99.90;;;;;;6210610;22;20450;-88
2021/05/17 02:45:29;;;;;;;1.27;0.70;;;11.80;99.90;;;;;;6200809;22;20399;-87
2021/05/17 02:47:57;;;;;;;1.30;0.90;;;11.80;99.90;;;;;;6210996;22;20419;-87
2021/05/17 02:50:32;;;;;;;1.43;0.90;;;11.80;99.90;;;;;;6205062;23;20424;-88
2021/05/17 02:53:00;;;;;;;8.73;1.10;;;11.80;99.90;;;;;;6197401;23;20464;-88
2021/05/17 02:55:31;;;;;;;1.50;1.00;;;11.80;99.90;;;;;;6200468;23;20433;-87
2021/05/17 02:58:06;;;;;;;1.23;1.00;;;11.80;99.90;;;;;;6198578;23;20409;-88
2021/05/17 03:00:34;;;;;;;1.03;0.57;;;11.80;99.90;;;;;;6212045;23;20410;-88
2021/05/17 03:03:04;;;;;;;4.50;0.97;;;11.90;99.90;;;;;;6195641;23;20445;-87
2021/05/17 03:05:33;;;;;;;0.90;0.50;;;11.80;99.90;;;;;;6189785;23;20440;-88
2021/05/17 03:08:01;;;;;;;0.90;0.70;;;11.90;99.90;;;;;;6189607;23;20485;-88
2021/05/17 03:10:30;;;;;;;1.10;0.60;;;11.90;99.90;;;;;;6187876;23;20438;-88
2021/05/17 03:12:59;;;;;;;0.80;0.60;;;11.90;99.90;;;;;;6188310;23;20882;-88
2021/05/17 03:15:26;;;;;;;1.73;0.73;;;11.90;99.90;;;;;;6189464;23;20499;-88
2021/05/17 03:17:55;;;;;;;0.70;0.60;;;11.90;99.90;;;;;;6188582;23;20851;-88
2021/05/17 03:20:22;;;;;;;0.93;0.80;;;11.90;99.90;;;;;;6186696;23;20517;-88
2021/05/17 03:22:50;;;;;;;3.20;0.70;;;11.80;99.90;;;;;;6188941;23;20453;-88
2021/05/17 03:25:20;;;;;;;1.53;0.73;;;11.90;99.90;;;;;;6190546;23;20436;-89
2021/05/17 03:27:46;;;;;;;1.00;0.60;;;11.90;99.90;;;;;;6188573;23;20888;-88
2021/05/17 03:30:14;;;;;;;3.60;2.20;;;11.90;99.90;;;;;;6189669;23;20427;-88
2021/05/17 03:32:40;;;;;;;1.90;0.70;;;11.90;99.90;;;;;;6189271;23;20738;-88
2021/05/17 03:35:07;;;;;;;1.63;0.90;;;11.80;99.90;;;;;;6206956;23;20433;-88
2021/05/17 03:37:33;;;;;;;1.10;0.77;;;11.80;99.90;;;;;;6214403;22;20406;-88
2021/05/17 03:40:01;;;;;;;2.07;0.60;;;11.70;99.90;;;;;;6199653;23;20441;-88
2021/05/17 03:42:28;;;;;;;0.80;0.60;;;11.70;99.90;;;;;;6194653;23;20415;-88
2021/05/17 03:44:54;;;;;;;2.80;0.80;;;11.70;99.90;;;;;;6190284;23;20441;-88
2021/05/17 03:47:20;;;;;;;1.23;0.80;;;11.70;99.90;;;;;;6188792;23;20465;-89
2021/05/17 03:49:47;;;;;;;1.37;0.80;;;11.70;99.90;;;;;;6188059;23;20874;-88
2021/05/17 03:52:13;;;;;;;6.43;1.03;;;11.60;99.90;;;;;;6188126;23;20402;-89
2021/05/17 03:54:40;;;;;;;1.17;0.70;;;11.60;99.90;;;;;;6188622;23;20432;-88
2021/05/17 03:57:08;;;;;;;2.10;0.83;;;11.60;99.90;;;;;;6205518;23;20469;-88
2021/05/17 03:59:36;;;;;;;1.03;0.67;;;11.60;99.90;;;;;;6212556;22;20418;-88
2021/05/17 04:02:02;;;;;;;1.77;0.70;;;11.60;99.90;;;;;;6202135;23;20465;-88
2021/05/17 04:04:35;;;;;;;1.10;0.80;;;11.60;99.90;;;;;;6205627;23;20952;-89
2021/05/17 04:07:06;;;;;;;2.10;0.83;;;11.60;99.90;;;;;;6188465;23;20415;-88
2021/05/17 04:15:11;;;;;;;2.17;0.80;;;11.70;99.90;;;;;;6133663;23;20509;-88
2021/05/17 04:17:38;;;;;;;3.13;0.97;;;11.80;99.90;;;;;;6186825;23;20912;-89
2021/05/17 04:20:05;;;;;;;1.50;0.80;;;11.80;99.90;;;;;;6187308;23;20423;-88
2021/05/17 04:22:31;;;;;;;2.33;1.10;;;11.80;99.90;;;;;;6186567;23;20414;-89
2021/05/17 04:24:58;;;;;;;1.73;0.93;;;11.80;99.90;;;;;;6185970;23;20416;-89
2021/05/17 04:27:25;;;;;;;3.17;0.80;;;11.80;99.90;;;;;;6186553;23;20434;-89
2021/05/17 04:29:51;;;;;;;0.90;0.63;;;11.90;99.90;;;;;;6186245;23;20522;-89
2021/05/17 04:32:18;;;;;;;1.93;0.63;;;11.90;99.90;;;;;;6193344;23;20444;-86
2021/05/17 04:34:44;;;;;;;1.77;0.80;;;11.90;99.90;;;;;;6186766;23;20417;-89
2021/05/17 04:37:11;;;;;;;1.93;1.33;;;12.00;99.90;;;;;;6187501;23;20418;-88
2021/05/17 04:39:38;;;;;;;3.03;1.00;;;12.00;99.90;;;;;;6185694;23;20437;-88
2021/05/17 04:42:05;;;;;;;1.13;0.90;;;12.00;99.90;;;;;;6186754;23;20421;-89
2021/05/17 04:44:32;;;;;;;2.63;0.90;;;12.10;99.90;;;;;;6186488;23;21146;-88
2021/05/17 04:46:59;;;;;;;1.13;0.60;;;12.10;99.90;;;;;;6186524;23;20489;-88
2021/05/17 04:49:25;;;;;;;2.23;0.70;;;12.10;99.90;;;;;;6189938;23;20439;-89
2021/05/17 04:51:52;;;;;;;1.53;0.80;;;12.10;99.90;;;;;;6192914;23;20410;-90
2021/05/17 04:54:19;;;;;;;1.20;0.90;;;12.10;99.90;;;;;;6194268;23;20445;-88
2021/05/17 04:56:45;;;;;;;1.57;0.80;;;12.10;99.90;;;;;;6187623;23;20444;-88
2021/05/17 04:59:11;;;;;;;1.00;0.87;;;12.10;99.90;;;;;;6186986;23;20487;-87
2021/05/17 05:01:39;;;;;;;2.83;0.60;;;12.10;99.90;;;;;;6199315;23;20449;-88
2021/05/17 05:04:06;;;;;;;1.37;0.87;;;12.20;99.90;;;;;;6205016;23;20471;-87
2021/05/17 05:06:32;;;;;;;1.33;0.60;;;12.30;99.90;;;;;;6207524;22;20398;-88
2021/05/17 05:08:59;;;;;;;1.20;0.70;;;12.40;99.90;;;;;;6213618;22;20404;-88
2021/05/17 05:11:25;;;;;;;4.13;0.80;;;12.30;99.90;;;;;;6209190;22;20417;-87
2021/05/17 05:13:52;;;;;;;1.60;0.90;;;12.30;99.90;;;;;;6195200;23;20414;-88
2021/05/17 05:16:18;;;;;;;1.57;1.40;;;12.60;99.90;;;;;;6205218;23;20472;-88
2021/05/17 05:18:46;;;;;;;1.90;0.70;;;13.00;99.90;;;;;;6204831;23;20413;-89
2021/05/17 05:21:13;;;;;;;2.90;1.00;;;13.30;99.10;;;;;;6191244;23;20426;-88
2021/05/17 05:23:39;;;;;;;1.70;0.67;;;13.40;98.40;;;;;;6189071;23;20998;-88
2021/05/17 05:28:58;;;;;;;1.07;0.67;;;13.90;97.00;;;;;;6140061;23;20396;-89
2021/05/17 05:31:28;;;;;;;2.00;0.87;;;14.10;95.70;;;;;;6194582;23;20414;-89
2021/05/17 05:33:55;;;;;;;4.20;1.27;;;14.50;95.40;;;;;;6206301;23;20378;-90
2021/05/17 05:36:22;;;;;;;1.77;0.80;;;14.70;94.70;;;;;;6214050;22;20422;-89
2021/05/17 05:38:49;;;;;;;2.87;0.67;;;14.70;93.80;;;;;;6213756;22;20417;-89
2021/05/17 05:41:16;;;;;;;0.83;0.50;;;14.50;93.50;;;;;;6214186;22;20397;-89
2021/05/17 05:43:42;;;;;;;1.50;0.67;;;14.20;93.70;;;;;;6213798;22;20464;-88
2021/05/17 05:46:09;;;;;;;4.37;1.17;;;13.80;93.70;;;;;;6213075;22;20398;-88
2021/05/17 05:48:46;;;;;;;4.47;1.00;;;13.80;94.40;;;;;;6207759;22;20540;-88
2021/05/17 05:51:15;;;;;;;3.83;1.23;;;13.90;93.90;;;;;;6211788;23;20480;-89
2021/05/17 05:53:41;;;;;;;2.77;0.80;;;14.90;93.60;;;;;;6213511;22;20418;-87
2021/05/17 05:56:08;;;;;;;2.30;1.00;;;15.60;91.90;;;;;;6212489;22;20411;-89
2021/05/17 05:58:34;;;;;;;1.57;0.87;;;15.60;90.80;;;;;;6202962;23;20410;-88
2021/05/17 06:01:05;;;;;;;1.63;0.70;;;15.40;90.50;;;;;;6193772;23;20588;-89
2021/05/17 06:03:38;;;;;;;1.50;0.63;;;14.70;90.50;;;;;;6196501;23;20440;-88
2021/05/17 06:06:07;;;;;;;2.57;1.43;;;14.30;91.30;;;;;;6195452;23;20420;-88
2021/05/17 06:08:35;;;;;;;2.37;0.90;;;14.00;92.50;;;;;;6201723;22;20432;-89
2021/05/17 06:11:03;;;;;;;1.23;0.60;;;13.90;92.60;;;;;;6212652;23;20418;-88
2021/05/17 06:13:30;;;;;;;4.10;0.70;;;13.70;92.70;;;;;;6209698;23;20403;-88
2021/05/17 06:16:00;;;;;;;0.90;0.57;;;13.70;93.40;;;;;;6212747;22;20412;-90
2021/05/17 06:18:27;;;;;;;1.37;0.63;;;13.40;93.10;;;;;;6209418;23;20476;-92
2021/05/17 06:20:55;;;;;;;1.33;0.70;;;13.30;93.90;;;;;;6201077;23;20445;-91
2021/05/17 06:23:28;;;;;;;1.13;0.53;;;13.20;94.00;;;;;;6207782;22;20449;-92
2021/05/17 06:25:58;;;;;;;2.10;0.73;;;13.40;94.40;;;;;;6211505;22;20400;-92
2021/05/17 06:28:46;;;;;;;4.00;1.30;;;13.20;93.90;;;;;;6195309;23;20446;-91
2021/05/17 06:31:13;;;;;;;0.80;0.60;;;13.20;94.40;;;;;;6193123;23;20392;-88
2021/05/17 06:33:43;;;;;;;1.70;0.70;;;13.20;94.40;;;;;;6192256;23;20412;-86
2021/05/17 06:36:12;;;;;;;4.93;0.70;;;13.20;94.30;;;;;;6202811;23;20390;-87
2021/05/17 06:38:40;;;;;;;3.00;0.90;;;13.10;94.70;;;;;;6193448;23;20441;-88
2021/05/17 06:41:07;;;;;;;3.53;0.70;;;13.10;94.60;;;;;;6192532;23;20430;-87
2021/05/17 06:43:34;;;;;;;3.73;1.30;;;13.20;94.50;;;;;;6188567;23;20445;-87
2021/05/17 06:46:01;;;;;;;2.90;0.70;;;13.20;94.40;;;;;;6192781;23;20792;-87
2021/05/17 06:48:28;;;;;;;2.27;0.70;;;13.40;94.10;;;;;;6191324;23;20772;-88
2021/05/17 06:50:55;;;;;;;2.80;0.87;;;13.60;94.00;;;;;;6190639;23;20432;-87
2021/05/17 06:53:23;;;;;;;1.50;0.70;;;13.80;93.70;;;;;;6196744;23;20404;-86
2021/05/17 06:55:58;;;;;;;1.23;0.50;;;14.20;93.00;;;;;;6196138;23;20407;-87
2021/05/17 06:58:28;;;;;;;2.07;0.70;;;14.50;92.70;;;;;;6190402;23;20405;-88
2021/05/17 07:00:55;;;;;;;1.77;0.50;;;14.90;91.70;;;;;;6191787;23;20430;-86
2021/05/17 07:03:24;;;;;;;1.90;0.50;;;14.90;90.80;;;;;;6191729;23;20445;-85
2021/05/17 07:05:53;;;;;;;1.27;0.70;;;14.80;91.50;;;;;;6185430;23;20926;-86
2021/05/17 07:13:50;;;;;;;1.33;0.70;;;15.50;89.30;;;;;;6186444;23;20413;-86
2021/05/17 07:16:17;;;;;;;2.40;1.60;;;15.00;89.40;;;;;;6187054;23;20419;-86
2021/05/17 07:18:43;;;;;;;2.17;0.93;;;14.80;90.30;;;;;;6187925;23;20408;-86
2021/05/17 07:23:56;;;;;;;1.00;0.60;;;15.30;90.60;;;;;;6188611;23;20425;-86
2021/05/17 07:26:23;;;;;;;2.10;0.87;;;15.40;90.90;;;;;;6188073;23;20402;-86
2021/05/17 07:28:52;;;;;;;4.20;0.83;;;15.50;90.50;;;;;;6187693;23;20471;-87
2021/05/17 07:31:18;;;;;;;0.70;0.40;;;15.60;90.10;;;;;;6187799;23;20912;-87
2021/05/17 07:33:44;;;;;;;4.90;0.93;;;15.90;89.30;;;;;;6193411;23;20402;-87
2021/05/17 07:36:12;;;;;;;1.73;0.40;;;16.40;87.80;;;;;;6202219;23;20413;-86
2021/05/17 07:38:40;;;;;;;1.90;0.50;;;16.40;86.60;;;;;;6191926;23;20420;-87
2021/05/17 07:41:06;;;;;;;1.30;0.50;;;16.20;87.10;;;;;;6188881;23;20438;-86
2021/05/17 07:43:32;;;;;;;1.63;0.83;;;17.00;85.30;;;;;;6188437;23;20446;-86
2021/05/17 07:45:59;;;;;;;3.03;1.00;;;17.50;82.20;;;;;;6189657;23;20410;-86
2021/05/17 07:48:26;;;;;;;2.60;1.00;;;17.40;82.00;;;;;;6188576;23;20746;-87
2021/05/17 07:50:52;;;;;;;2.10;0.50;;;17.50;82.30;;;;;;6205305;23;20421;-87
2021/05/17 07:53:18;;;;;;;3.10;1.20;;;18.20;80.20;;;;;;6202757;23;20413;-88
2021/05/17 07:55:48;;;;;;;3.03;1.47;;;19.30;75.90;;;;;;6211714;22;20404;-86
2021/05/17 07:58:22;;;;;;;5.80;1.67;;;19.60;73.50;;;;;;6202561;23;20444;-89
2021/05/17 08:00:48;;;;;;;2.57;0.70;;;19.20;72.40;;;;;;6209663;22;20456;-87
2021/05/17 08:03:15;;;;;;;1.17;0.80;;;18.60;73.20;;;;;;6207790;22;20470;-87
2021/05/17 08:05:41;;;;;;;3.73;0.90;;;18.20;74.50;;;;;;6200971;23;20414;-85
2021/05/17 08:08:09;;;;;;;1.97;0.80;;;17.70;73.90;;;;;;6195086;23;20503;-87
2021/05/17 08:10:35;;;;;;;9.40;1.13;;;17.30;74.90;;;;;;6203090;23;20532;-89
2021/05/17 08:13:01;;;;;;;1.70;0.70;;;16.80;73.50;;;;;;6203025;23;20424;-88
2021/05/17 08:15:28;;;;;;;1.73;1.00;;;16.60;76.10;;;;;;6194645;23;20421;-88
2021/05/17 08:17:54;;;;;;;1.53;0.97;;;16.60;76.90;;;;;;6194206;23;20433;-86
2021/05/17 08:20:22;;;;;;;1.47;1.23;;;16.70;77.40;;;;;;6191532;23;20421;-87
2021/05/17 08:22:49;;;;;;;1.43;0.87;;;17.10;75.00;;;;;;6198948;23;20561;-87
2021/05/17 08:25:15;;;;;;;4.57;1.07;;;18.20;74.30;;;;;;6201809;23;20409;-86
2021/05/17 08:27:41;;;;;;;1.17;0.70;;;19.10;70.70;;;;;;6201170;23;20398;-87
2021/05/17 08:30:08;;;;;;;2.70;0.80;;;20.40;68.80;;;;;;6209429;23;20457;-86
2021/05/17 08:32:35;;;;;;;2.17;0.70;;;20.80;64.10;;;;;;6203525;23;20465;-87
2021/05/17 08:35:01;;;;;;;4.23;1.07;;;19.80;63.80;;;;;;6192212;23;20886;-86
2021/05/17 08:37:28;;;;;;;3.30;0.97;;;19.60;66.50;;;;;;6197052;23;20402;-87
2021/05/17 08:39:54;;;;;;;2.30;1.07;;;19.70;66.20;;;;;;6202916;23;20815;-87
2021/05/17 08:42:20;;;;;;;1.87;0.63;;;20.80;63.60;;;;;;6192774;23;20415;-87
2021/05/17 08:44:47;;;;;;;0.90;0.70;;;21.60;61.00;;;;;;6187376;23;20451;-87
2021/05/17 08:47:17;;;;;;;3.10;1.17;;;23.90;58.90;;;;;;6192922;23;20398;-88
2021/05/17 08:49:44;;;;;;;2.40;1.07;;;24.70;54.50;;;;;;6197328;23;20456;-87
2021/05/17 08:52:10;;;;;;;2.70;0.90;;;23.80;53.20;;;;;;6203722;23;20499;-87
2021/05/17 08:54:38;;;;;;;2.20;0.67;;;21.70;55.50;;;;;;6196715;23;20738;-87
2021/05/17 08:57:05;;;;;;;5.57;1.27;;;21.40;55.90;;;;;;6195010;23;20408;-89
2021/05/17 08:59:31;;;;;;;1.73;0.60;;;21.60;57.40;;;;;;6192983;23;20426;-88
2021/05/17 09:01:58;;;;;;;5.03;0.70;;;21.00;57.20;;;;;;6192995;23;20455;-87
2021/05/17 09:04:24;;;;;;;2.20;0.70;;;20.00;58.10;;;;;;6193899;23;20448;-86
2021/05/17 09:06:54;;;;;;;2.50;1.43;;;18.90;61.20;;;;;;6196167;23;20434;-88
2021/05/17 09:09:27;;;;;;;2.67;1.20;;;19.10;64.30;;;;;;6192745;23;20740;-86
2021/05/17 09:11:56;;;;;;;5.27;1.10;;;19.20;63.10;;;;;;6189121;23;20422;-86
2021/05/17 09:14:23;;;;;;;2.27;0.93;;;19.20;62.10;;;;;;6196008;23;20445;-87
2021/05/17 09:16:52;;;;;;;2.30;0.60;;;20.00;62.60;;;;;;6205952;23;20402;-87
2021/05/17 09:19:20;;;;;;;2.30;0.70;;;20.40;60.20;;;;;;6201519;23;20520;-87
2021/05/17 09:21:58;;;;;;;1.83;0.70;;;20.80;59.90;;;;;;6196672;23;20413;-87
2021/05/17 09:24:34;;;;;;;1.30;0.50;;;19.70;60.40;;;;;;6189792;23;20504;-87
2021/05/17 09:27:02;;;;;;;1.00;0.50;;;18.80;62.40;;;;;;6190488;23;20402;-88
2021/05/17 09:29:28;;;;;;;1.30;0.83;;;17.40;68.20;;;;;;6191169;23;20809;-87
2021/05/17 09:31:54;;;;;;;1.93;1.10;;;17.00;73.90;;;;;;6203903;23;20414;-86
2021/05/17 09:34:33;;;;;;;2.50;1.13;;;17.00;75.20;;;;;;6212274;22;20418;-86
2021/05/17 09:37:03;;;;;;;5.93;1.07;;;17.00;76.90;;;;;;6196025;23;20367;-87
2021/05/17 09:39:29;;;;;;;1.30;0.60;;;17.90;75.30;;;;;;6194348;23;20430;-87
2021/05/17 09:41:57;;;;;;;1.27;0.63;;;19.50;71.00;;;;;;6195952;23;20406;-86
2021/05/17 09:44:27;;;;;;;3.27;1.60;;;20.80;65.40;;;;;;6194948;23;20469;-86
2021/05/17 09:47:02;;;;;;;2.23;1.17;;;21.30;63.70;;;;;;6200429;23;20417;-88
2021/05/17 09:49:32;;;;;;;4.67;1.00;;;22.20;60.50;;;;;;6206538;22;20503;-88
2021/05/17 09:52:12;;;;;;;1.30;0.67;;;21.90;57.30;;;;;;6205430;23;20410;-86
2021/05/17 09:54:52;;;;;;;2.13;0.80;;;20.50;58.90;;;;;;6210800;23;20402;-86
2021/05/17 09:57:20;;;;;;;0.97;0.50;;;20.10;59.80;;;;;;6208422;23;20395;-86
2021/05/17 09:59:49;;;;;;;2.00;0.80;;;19.80;60.60;;;;;;6205005;23;20481;-86
2021/05/17 10:02:33;;;;;;;8.23;1.40;;;19.70;61.00;;;;;;6209455;22;20390;-87
2021/05/17 10:05:24;;;;;;;2.60;0.80;;;19.00;63.10;;;;;;6204725;23;20730;-86
2021/05/17 10:07:52;;;;;;;2.33;0.70;;;18.00;66.20;;;;;;6190171;23;20418;-87
2021/05/17 10:10:20;;;;;;;1.67;0.80;;;17.30;70.50;;;;;;6191243;23;20490;-86
2021/05/17 10:12:47;;;;;;;1.23;0.60;;;16.80;71.40;;;;;;6192009;23;20402;-87
2021/05/17 10:15:16;;;;;;;1.00;0.63;;;16.50;72.20;;;;;;6197019;23;20484;-87
2021/05/17 10:17:43;;;;;;;2.40;0.60;;;16.80;72.30;;;;;;6201615;23;20406;-87
2021/05/17 10:20:13;;;;;;;3.23;0.70;;;17.40;72.30;;;;;;6198264;23;20484;-87
2021/05/17 10:22:41;;;;;;;1.70;0.77;;;17.70;70.20;;;;;;6189411;23;20739;-87
2021/05/17 10:25:09;;;;;;;1.73;0.67;;;19.20;69.10;;;;;;6186678;23;20472;-86
2021/05/17 10:27:40;;;;;;;1.20;0.60;;;19.90;64.80;;;;;;6186677;23;20578;-87
2021/05/17 10:30:10;;;;;;;1.70;1.60;;;19.50;63.10;;;;;;6188399;23;20929;-86
2021/05/17 10:32:47;;;;;;;5.53;3.03;;;19.20;64.10;;;;;;6188107;23;20517;-86
2021/05/17 10:35:17;;;;;;;4.20;2.70;;;19.20;64.70;;;;;;6188398;23;20433;-86
2021/05/17 10:37:46;;;;;;;1.93;1.27;;;19.30;63.80;;;;;;6191314;23;20478;-87
2021/05/17 10:40:34;;;;;;;1.43;0.83;;;19.30;64.20;;;;;;6205026;23;20445;-87
2021/05/17 10:43:10;;;;;;;2.13;0.80;;;18.40;66.70;;;;;;6211340;22;20376;-86
2021/05/17 10:48:26;;;;;;;2.40;0.63;;;16.40;75.50;;;;;;6165252;23;20393;-86
2021/05/17 10:51:10;;;;;;;1.73;0.57;;;15.70;81.10;;;;;;6205260;22;20433;-86
2021/05/17 10:53:50;;;;;;;4.70;1.03;;;14.80;88.10;;;;;;6197904;23;20386;-87
2021/05/17 10:56:18;;;;;;;2.93;1.00;;;14.40;92.20;;;;;;6192723;23;20400;-87
2021/05/17 11:01:58;;;;;;;0.90;0.57;;;16.90;91.40;;;;;;6193225;23;20433;-87
2021/05/17 11:04:31;;;;;;;1.23;0.67;;;19.80;82.10;;;;;;6193190;23;20445;-87
2021/05/17 11:07:23;;;;;;;1.93;0.83;;;21.30;75.10;;;;;;6193270;23;20728;-87
2021/05/17 11:10:09;;;;;;;1.57;0.70;;;22.30;70.10;;;;;;6194632;23;20433;-86
2021/05/17 11:13:12;;;;;;;1.30;0.80;;;23.40;68.20;;;;;;6190477;23;20405;-87
2021/05/17 11:16:01;;;;;;;2.33;1.10;;;23.50;64.00;;;;;;6188022;23;20413;-88
2021/05/17 11:18:40;;;;;;;2.00;1.03;;;23.30;62.10;;;;;;6196588;23;20400;-87
2021/05/17 11:21:22;;;;;;;5.30;0.87;;;24.40;62.40;;;;;;6197721;23;20441;-87
2021/05/17 11:24:03;;;;;;;2.70;1.30;;;24.90;58.70;;;;;;6204758;23;20434;-87
2021/05/17 11:26:31;;;;;;;2.83;0.70;;;23.40;55.60;;;;;;6203042;23;20393;-87
2021/05/17 11:29:08;;;;;;;2.60;1.20;;;21.70;59.70;;;;;;6199580;23;20587;-87
2021/05/17 11:31:45;;;;;;;1.27;0.73;;;20.80;63.90;;;;;;6207317;23;20444;-86
2021/05/17 11:34:26;;;;;;;1.97;0.80;;;19.30;70.60;;;;;;6213176;22;20392;-85
2021/05/17 11:37:09;;;;;;;1.73;0.80;;;17.90;77.40;;;;;;6212301;22;20384;-87
2021/05/17 11:39:36;;;;;;;1.63;0.80;;;17.10;80.80;;;;;;6208244;22;20492;-87
2021/05/17 11:42:05;;;;;;;3.10;1.37;;;16.40;84.60;;;;;;6206073;23;20435;-87
2021/05/17 11:44:34;;;;;;;4.40;1.83;;;16.10;89.00;;;;;;6210754;22;20472;-87
2021/05/17 11:47:02;;;;;;;2.23;1.67;;;16.30;90.20;;;;;;6208362;23;20402;-85
2021/05/17 11:49:35;;;;;;;3.50;2.20;;;16.60;88.40;;;;;;6203809;23;20484;-87
2021/05/17 11:52:04;;;;;;;2.87;1.97;;;17.30;90.20;;;;;;6197101;23;20413;-87
2021/05/17 11:54:37;;;;;;;1.47;1.03;;;18.20;86.00;;;;;;6192884;23;20397;-87
2021/05/17 11:57:05;;;;;;;2.40;1.17;;;19.00;82.90;;;;;;6192548;23;20406;-87
2021/05/17 11:59:33;;;;;;;1.20;0.70;;;21.70;77.50;;;;;;6194271;23;20934;-88
2021/05/17 12:02:02;;;;;;;1.17;0.60;;;24.10;68.30;;;;;;6191316;23;20411;-88
2021/05/17 12:04:32;;;;;;;1.20;0.50;;;25.50;61.00;;;;;;6195980;23;20501;-86
2021/05/17 12:07:00;;;;;;;1.63;0.80;;;26.00;58.10;;;;;;6193355;23;20410;-87
2021/05/17 12:09:33;;;;;;;2.20;0.73;;;25.50;58.20;;;;;;6193792;23;20428;-89
2021/05/17 12:12:01;;;;;;;1.47;0.60;;;24.30;58.20;;;;;;6193844;23;20394;-88
2021/05/17 12:14:29;;;;;;;2.23;0.93;;;22.70;60.60;;;;;;6194346;23;20414;-87
2021/05/17 12:17:14;;;;;;;1.67;0.70;;;20.60;61.30;;;;;;6193305;23;20409;-87
2021/05/17 12:19:41;;;;;;;1.23;0.60;;;19.00;64.10;;;;;;6194847;23;20456;-87
2021/05/17 12:22:11;;;;;;;2.67;1.70;;;18.60;68.90;;;;;;6190234;23;20862;-87
2021/05/17 12:24:38;;;;;;;3.20;1.90;;;20.90;66.00;;;;;;6189640;23;20432;-87
2021/05/17 12:27:06;;;;;;;2.00;0.83;;;23.60;61.40;;;;;;6188605;23;20409;-88
2021/05/17 12:29:59;;;;;;;3.13;0.70;;;25.30;55.00;;;;;;6190624;23;20439;-88
2021/05/17 12:32:37;;;;;;;0.80;0.60;;;26.40;50.70;;;;;;6189257;23;20403;-89
2021/05/17 12:35:08;;;;;;;4.03;0.80;;;27.20;50.10;;;;;;6187107;23;20405;-87
2021/05/17 12:37:38;;;;;;;1.23;0.47;;;26.00;48.60;;;;;;6186872;23;20450;-88
2021/05/17 12:40:25;;;;;;;1.93;0.50;;;24.40;50.40;;;;;;6197011;23;20429;-88
2021/05/17 12:43:09;;;;;;;2.23;1.23;;;23.80;50.80;;;;;;6197611;23;20513;-88
2021/05/17 12:45:39;;;;;;;4.00;3.10;;;23.70;51.20;;;;;;6194343;23;20886;-88
2021/05/17 12:48:21;;;;;;;0.80;0.50;;;23.70;52.50;;;;;;6196052;23;20806;-88
2021/05/17 12:50:50;;;;;;;1.27;0.70;;;23.00;52.30;;;;;;6174943;23;20522;-87
2021/05/17 12:53:19;;;;;;;3.20;0.53;;;23.30;51.90;;;;;;6194322;23;20440;-87
2021/05/17 12:55:47;;;;;;;2.77;2.00;;;22.70;51.20;;;;;;6189965;23;20472;-87
2021/05/17 12:58:24;;;;;;;4.90;3.17;;;22.40;52.40;;;;;;6190842;23;20393;-87
2021/05/17 13:00:52;;;;;;;2.50;1.17;;;22.00;53.50;;;;;;6193821;23;20409;-87
2021/05/17 13:03:20;;;;;;;1.13;0.77;;;20.50;55.50;;;;;;6191094;23;20448;-87
2021/05/17 13:05:59;;;;;;;2.87;0.60;;;20.30;56.00;;;;;;6191838;23;20416;-88
2021/05/17 13:08:46;;;;;;;1.83;0.53;;;19.80;56.90;;;;;;6194023;23;20473;-88
2021/05/17 13:11:20;;;;;;;1.30;0.80;;;19.20;59.00;;;;;;6203964;23;20420;-87
2021/05/17 13:14:20;;;;;;;0.90;0.50;;;19.10;59.30;;;;;;6192595;23;20609;-89
2021/05/17 13:16:57;;;;;;;1.57;0.97;;;19.20;59.50;;;;;;6188152;23;20475;-88
2021/05/17 13:19:37;;;;;;;3.63;0.60;;;19.10;59.60;;;;;;6202907;23;20410;-87
2021/05/17 13:30:40;;;;;;;8.90;0.77;;;20.20;55.90;;;;;;6163126;22;20433;-87
2021/05/17 13:33:07;;;;;;;1.80;0.80;;;19.40;57.90;;;;;;6213564;22;20420;-88
2021/05/17 13:35:34;;;;;;;1.90;1.57;;;19.40;59.10;;;;;;6210853;22;20469;-88
2021/05/17 13:38:01;;;;;;;3.90;0.70;;;19.50;58.60;;;;;;6202953;23;20425;-89
2021/05/17 13:40:28;;;;;;;1.03;0.50;;;19.00;58.00;;;;;;6204166;23;20501;-87
2021/05/17 13:42:55;;;;;;;0.83;0.40;;;18.70;59.50;;;;;;6195923;23;20413;-88
2021/05/17 13:45:21;;;;;;;2.90;0.70;;;18.30;60.50;;;;;;6197649;23;20438;-89
2021/05/17 13:47:49;;;;;;;1.17;0.60;;;18.00;61.70;;;;;;6192018;23;20429;-88
2021/05/17 13:50:18;;;;;;;3.30;0.90;;;17.90;63.50;;;;;;6188179;23;20430;-88